createdAt,value
2019-02-25T00:01:39.112Z,13.85
2019-02-25T00:04:10.179Z,15.23
2019-02-25T00:06:41.260Z,11.50
2019-02-25T00:09:12.419Z,13.00
2019-02-25T00:11:43.701Z,11.90
2019-02-25T00:14:14.875Z,8.35
2019-02-25T00:16:45.945Z,24.72
2019-02-25T00:19:17.013Z,18.77
2019-02-25T00:21:48.049Z,17.15
2019-02-25T00:24:19.112Z,17.45
2019-02-25T00:26:50.167Z,17.57
2019-02-25T00:29:21.238Z,22.85
2019-02-25T00:31:52.280Z,13.25
2019-02-25T00:34:23.358Z,13.10
2019-02-25T00:36:54.422Z,12.07
2019-02-25T00:39:25.518Z,13.15
2019-02-25T00:41:56.758Z,14.03
2019-02-25T00:44:27.834Z,13.93
2019-02-25T00:46:58.867Z,9.50
2019-02-25T00:49:29.936Z,11.10
2019-02-25T00:52:01.009Z,9.45
2019-02-25T00:54:32.049Z,10.88
2019-02-25T00:57:03.351Z,15.85
2019-02-25T00:59:34.438Z,14.95
2019-02-25T01:02:05.517Z,11.80
2019-02-25T01:04:37.325Z,14.15
2019-02-25T01:07:08.402Z,12.95
2019-02-25T01:09:39.433Z,16.90
2019-02-25T01:12:11.008Z,15.25
2019-02-25T01:14:42.109Z,14.00
2019-02-25T01:17:13.236Z,18.75
2019-02-25T01:19:44.275Z,13.93
2019-02-25T01:22:15.358Z,19.48
2019-02-25T01:24:46.472Z,11.83
2019-02-25T01:27:17.556Z,12.85
2019-02-25T01:29:48.723Z,11.95
2019-02-25T01:32:19.798Z,17.60
2019-02-25T01:34:50.833Z,21.05
2019-02-25T01:37:24.824Z,20.12
2019-02-25T01:40:04.100Z,17.92
2019-02-25T01:42:35.238Z,15.23
2019-02-25T01:45:12.996Z,20.60
2019-02-25T01:47:44.069Z,13.53
2019-02-25T01:50:15.340Z,16.85
2019-02-25T01:52:46.381Z,20.90
2019-02-25T01:55:18.450Z,13.70
2019-02-25T01:57:49.651Z,19.05
2019-02-25T02:00:21.190Z,19.77
2019-02-25T02:02:52.231Z,16.20
2019-02-25T02:05:24.516Z,22.35
2019-02-25T02:07:55.732Z,21.30
2019-02-25T02:10:26.795Z,17.67
2019-02-25T02:12:58.831Z,17.73
2019-02-25T02:15:30.903Z,20.00
2019-02-25T02:18:01.941Z,16.57
2019-02-25T02:20:33.011Z,16.65
2019-02-25T02:23:04.055Z,18.12
2019-02-25T02:25:35.126Z,17.25
2019-02-25T02:28:06.169Z,15.75
2019-02-25T02:30:37.343Z,19.67
2019-02-25T02:33:08.479Z,17.62
2019-02-25T02:35:39.537Z,14.78
2019-02-25T02:38:11.604Z,17.30
2019-02-25T02:40:42.671Z,14.20
2019-02-25T02:43:13.749Z,15.90
2019-02-25T02:45:52.225Z,16.55
2019-02-25T02:48:42.312Z,21.37
2019-02-25T02:51:13.388Z,16.27
2019-02-25T02:53:44.460Z,15.40
2019-02-25T02:56:15.498Z,17.37
2019-02-25T02:58:46.562Z,21.80
2019-02-25T03:01:17.612Z,10.23
2019-02-25T03:03:48.749Z,18.40
2019-02-25T03:06:19.844Z,18.17
2019-02-25T03:08:50.922Z,23.22
2019-02-25T03:11:21.964Z,16.40
2019-02-25T03:13:53.135Z,25.48
2019-02-25T03:16:24.178Z,18.73
2019-02-25T03:18:55.249Z,18.80
2019-02-25T03:21:26.289Z,14.58
2019-02-25T03:23:57.360Z,14.68
2019-02-25T03:26:28.408Z,18.90
2019-02-25T03:28:59.476Z,14.33
2019-02-25T03:31:30.520Z,16.25
2019-02-25T03:34:01.592Z,15.03
2019-02-25T03:36:32.680Z,11.03
2019-02-25T03:39:04.060Z,13.25
2019-02-25T03:41:35.305Z,15.95
2019-02-25T03:44:06.393Z,15.30
2019-02-25T03:46:37.468Z,23.52
2019-02-25T03:49:08.660Z,14.13
2019-02-25T03:51:39.702Z,12.43
2019-02-25T03:54:10.742Z,14.10
2019-02-25T03:56:41.819Z,18.17
2019-02-25T03:59:14.331Z,21.20
2019-02-25T04:01:45.397Z,16.17
2019-02-25T04:04:16.438Z,12.10
2019-02-25T04:06:47.609Z,11.48
2019-02-25T04:09:18.750Z,16.23
2019-02-25T04:11:49.821Z,13.80
2019-02-25T04:14:20.855Z,13.65
2019-02-25T04:16:51.937Z,10.25
2019-02-25T04:19:22.973Z,20.02
2019-02-25T04:21:54.535Z,20.60
2019-02-25T04:24:25.578Z,14.28
2019-02-25T04:26:56.657Z,12.15
2019-02-25T04:29:28.741Z,12.93
2019-02-25T04:31:59.876Z,12.00
2019-02-25T04:34:30.924Z,16.48
2019-02-25T04:37:01.999Z,20.50
2019-02-25T04:39:33.083Z,21.05
2019-02-25T04:42:04.134Z,16.45
2019-02-25T04:44:35.212Z,23.77
2019-02-25T04:47:06.334Z,19.20
2019-02-25T04:49:37.414Z,24.05
2019-02-25T04:52:08.460Z,33.02
2019-02-25T04:54:39.551Z,21.55
2019-02-25T04:57:10.675Z,22.98
2019-02-25T04:59:41.759Z,26.48
2019-02-25T05:02:12.804Z,24.72
2019-02-25T05:04:43.893Z,16.48
2019-02-25T05:07:14.927Z,12.45
2019-02-25T05:09:46.008Z,18.40
2019-02-25T05:12:17.058Z,18.32
2019-02-25T05:14:48.139Z,17.70
2019-02-25T05:17:19.178Z,13.38
2019-02-25T05:19:50.182Z,13.85
2019-02-25T05:22:21.231Z,13.50
2019-02-25T05:24:52.314Z,16.50
2019-02-25T05:27:23.389Z,14.50
2019-02-25T05:29:54.459Z,11.50
2019-02-25T05:32:26.534Z,13.75
2019-02-25T05:34:57.577Z,13.10
2019-02-25T05:37:28.651Z,16.95
2019-02-25T05:39:59.689Z,16.90
2019-02-25T05:42:30.878Z,14.30
2019-02-25T05:45:01.923Z,15.08
2019-02-25T05:47:33.072Z,15.98
2019-02-25T05:50:05.819Z,20.27
2019-02-25T05:52:36.896Z,27.82
2019-02-25T05:55:11.899Z,13.40
2019-02-25T05:57:42.980Z,20.75
2019-02-25T06:00:23.184Z,15.40
2019-02-25T06:02:54.262Z,14.68
2019-02-25T06:05:25.305Z,32.35
2019-02-25T06:07:56.384Z,17.48
2019-02-25T06:10:27.485Z,13.22
2019-02-25T06:12:58.683Z,19.57
2019-02-25T06:15:29.734Z,13.75
2019-02-25T06:18:01.806Z,17.02
2019-02-25T06:20:32.846Z,16.23
2019-02-25T06:23:03.912Z,13.95
2019-02-25T06:25:34.988Z,15.88
2019-02-25T06:28:06.058Z,20.57
2019-02-25T06:30:37.199Z,19.00
2019-02-25T06:33:08.249Z,11.03
2019-02-25T06:35:39.326Z,15.23
2019-02-25T06:38:10.371Z,11.80
2019-02-25T06:40:43.706Z,12.60
2019-02-25T06:43:14.753Z,18.82
2019-02-25T06:45:45.833Z,25.40
2019-02-25T06:48:16.877Z,13.40
2019-02-25T06:50:47.958Z,15.00
2019-02-25T06:53:18.997Z,21.23
2019-02-25T06:55:50.065Z,34.95
2019-02-25T06:58:23.006Z,15.40
2019-02-25T07:00:53.923Z,23.55
2019-02-25T07:03:24.970Z,33.20
2019-02-25T07:06:06.571Z,42.80
2019-02-25T07:08:48.036Z,18.23
2019-02-25T07:11:20.671Z,27.67
2019-02-25T07:14:09.344Z,16.75
2019-02-25T07:16:42.852Z,69.92
2019-02-25T07:19:15.467Z,25.62
2019-02-25T07:22:05.894Z,24.47
2019-02-25T07:24:38.313Z,28.92
2019-02-25T07:27:13.912Z,14.23
2019-02-25T07:29:46.515Z,23.70
2019-02-25T07:32:37.083Z,16.52
2019-02-25T07:35:18.801Z,17.70
2019-02-25T07:38:00.021Z,23.80
2019-02-25T07:40:32.625Z,35.92
2019-02-25T07:43:11.082Z,15.83
2019-02-25T07:45:41.821Z,12.28
2019-02-25T07:48:12.587Z,24.05
2019-02-25T07:50:47.907Z,23.80
2019-02-25T07:53:20.594Z,24.15
2019-02-25T07:55:51.327Z,36.13
2019-02-25T07:58:23.966Z,27.55
2019-02-25T08:01:00.392Z,14.40
2019-02-25T08:03:34.127Z,20.35
2019-02-25T08:06:13.621Z,33.25
2019-02-25T08:08:47.298Z,17.73
2019-02-25T08:11:23.707Z,25.80
2019-02-25T08:14:02.327Z,11.78
2019-02-25T08:16:37.884Z,17.82
2019-02-25T08:19:17.662Z,20.32
2019-02-25T08:22:00.476Z,14.85
2019-02-25T08:24:36.143Z,17.37
2019-02-25T08:27:21.938Z,20.77
2019-02-25T08:29:57.504Z,23.90
2019-02-25T08:32:40.380Z,13.38
2019-02-25T08:35:32.216Z,14.35
2019-02-25T08:38:10.419Z,13.05
2019-02-25T08:40:49.892Z,15.48
2019-02-25T08:43:28.232Z,11.90
2019-02-25T08:46:00.865Z,14.68
2019-02-25T08:48:49.283Z,18.70
2019-02-25T08:51:20.338Z,12.80
2019-02-25T08:53:51.367Z,13.30
2019-02-25T08:56:22.429Z,18.85
2019-02-25T08:58:53.493Z,15.32
2019-02-25T09:01:24.518Z,17.70
2019-02-25T09:03:55.575Z,17.30
2019-02-25T09:06:26.603Z,16.50
2019-02-25T09:08:57.669Z,22.62
2019-02-25T09:11:28.729Z,15.05
2019-02-25T09:13:59.840Z,10.80
2019-02-25T09:16:30.865Z,13.45
2019-02-25T09:19:01.924Z,21.27
2019-02-25T09:21:32.986Z,9.93
2019-02-25T09:24:04.084Z,15.13
2019-02-25T09:26:35.115Z,14.90
2019-02-25T09:29:06.161Z,13.90
2019-02-25T09:31:37.190Z,10.23
2019-02-25T09:34:08.260Z,10.08
2019-02-25T09:36:39.295Z,13.20
2019-02-25T09:39:11.948Z,10.05
2019-02-25T09:41:42.975Z,10.70
2019-02-25T09:44:14.033Z,12.70
2019-02-25T09:46:45.092Z,10.90
2019-02-25T09:49:16.154Z,8.63
2019-02-25T09:51:47.201Z,10.95
2019-02-25T09:54:18.249Z,10.95
2019-02-25T09:56:49.417Z,10.65
2019-02-25T09:59:20.444Z,21.97
2019-02-25T10:01:51.495Z,10.28
2019-02-25T10:04:22.526Z,8.03
2019-02-25T10:07:01.964Z,9.40
2019-02-25T10:09:29.872Z,7.65
2019-02-25T10:11:59.050Z,15.50
2019-02-25T10:14:30.072Z,8.40
2019-02-25T10:17:01.141Z,9.85
2019-02-25T10:19:32.237Z,9.28
2019-02-25T10:22:03.318Z,15.50
2019-02-25T10:24:34.338Z,7.97
2019-02-25T10:27:05.391Z,7.72
2019-02-25T10:29:36.412Z,7.40
2019-02-25T10:32:07.470Z,17.15
2019-02-25T10:34:38.531Z,17.55
2019-02-25T10:37:11.127Z,7.83
2019-02-25T10:39:43.281Z,9.40
2019-02-25T10:42:15.091Z,12.23
2019-02-25T10:44:46.093Z,12.63
2019-02-25T10:47:19.326Z,8.33
2019-02-25T10:49:49.892Z,10.90
2019-02-25T10:52:20.895Z,18.30
2019-02-25T10:54:52.485Z,10.43
2019-02-25T10:57:27.148Z,23.18
2019-02-25T10:59:57.461Z,12.17
2019-02-25T11:02:28.474Z,15.37
2019-02-25T11:04:59.518Z,11.67
2019-02-25T11:07:31.166Z,8.47
2019-02-25T11:10:04.937Z,13.43
2019-02-25T11:12:35.951Z,18.17
2019-02-25T11:15:11.673Z,11.20
2019-02-25T11:17:43.207Z,12.90
2019-02-25T11:20:15.256Z,17.50
2019-02-25T11:22:48.428Z,12.17
2019-02-25T11:25:19.786Z,8.90
2019-02-25T11:27:51.788Z,8.13
2019-02-25T11:30:23.917Z,16.10
2019-02-25T11:32:56.257Z,11.20
2019-02-25T11:35:27.993Z,11.37
2019-02-25T11:38:01.571Z,14.30
2019-02-25T11:40:33.749Z,19.07
2019-02-25T11:43:04.673Z,13.67
2019-02-25T11:45:36.513Z,6.37
2019-02-25T11:48:07.580Z,11.13
2019-02-25T11:50:38.617Z,9.53
2019-02-25T11:53:09.648Z,17.00
2019-02-25T11:55:40.693Z,3.53
2019-02-25T11:58:11.722Z,8.13
2019-02-25T12:00:42.733Z,9.27
2019-02-25T12:03:13.777Z,13.63
2019-02-25T12:05:44.783Z,14.53
2019-02-25T12:08:15.823Z,21.83
2019-02-25T12:10:46.834Z,16.83
2019-02-25T12:13:17.870Z,4.63
2019-02-25T12:15:48.870Z,8.17
2019-02-25T12:18:19.921Z,22.13
2019-02-25T12:20:51.917Z,8.43
2019-02-25T12:23:22.966Z,5.93
2019-02-25T12:25:53.976Z,15.00
2019-02-25T12:28:25.072Z,10.20
2019-02-25T12:30:56.092Z,11.00
2019-02-25T12:33:27.247Z,7.23
2019-02-25T12:35:58.253Z,10.77
2019-02-25T12:38:29.390Z,12.73
2019-02-25T12:41:00.395Z,11.57
2019-02-25T12:43:31.520Z,5.67
2019-02-25T12:46:02.555Z,5.57
2019-02-25T12:48:33.937Z,4.80
2019-02-25T12:51:04.964Z,8.87
2019-02-25T12:53:37.778Z,8.20
2019-02-25T12:56:08.737Z,11.63
2019-02-25T12:58:39.800Z,9.00
2019-02-25T13:01:10.831Z,5.87
2019-02-25T13:03:41.873Z,8.93
2019-02-25T13:06:12.912Z,3.93
2019-02-25T13:08:43.918Z,6.73
2019-02-25T13:11:14.988Z,4.17
2019-02-25T13:13:47.043Z,6.87
2019-02-25T13:16:18.080Z,4.40
2019-02-25T13:18:49.086Z,6.23
2019-02-25T13:21:20.127Z,5.23
2019-02-25T13:23:51.140Z,7.53
2019-02-25T13:26:22.257Z,6.17
2019-02-25T13:28:53.341Z,7.00
2019-02-25T13:31:24.692Z,3.67
2019-02-25T13:33:55.765Z,6.73
2019-02-25T13:36:26.886Z,13.40
2019-02-25T13:38:57.899Z,6.77
2019-02-25T13:41:28.944Z,4.27
2019-02-25T13:44:00.069Z,7.50
2019-02-25T13:46:31.302Z,4.93
2019-02-25T13:49:02.421Z,7.63
2019-02-25T13:51:33.549Z,5.33
2019-02-25T13:54:04.671Z,5.93
2019-02-25T13:56:35.759Z,6.67
2019-02-25T13:59:06.873Z,13.20
2019-02-25T14:01:37.960Z,13.27
2019-02-25T14:04:09.074Z,3.30
2019-02-25T14:06:40.150Z,3.57
2019-02-25T14:09:11.368Z,4.10
2019-02-25T14:11:43.921Z,4.87
2019-02-25T14:14:15.230Z,4.10
2019-02-25T14:16:46.317Z,18.00
2019-02-25T14:19:17.355Z,4.30
2019-02-25T14:21:48.437Z,12.33
2019-02-25T14:24:20.785Z,8.27
2019-02-25T14:26:54.472Z,4.20
2019-02-25T14:29:26.486Z,15.33
2019-02-25T14:31:57.620Z,7.93
2019-02-25T14:34:28.693Z,5.37
2019-02-25T14:37:01.936Z,6.03
2019-02-25T14:39:32.973Z,3.70
2019-02-25T14:42:06.829Z,6.83
2019-02-25T14:44:40.319Z,9.30
2019-02-25T14:47:20.470Z,4.47
2019-02-25T14:49:43.486Z,9.50
2019-02-25T14:52:14.698Z,11.03
2019-02-25T14:54:46.003Z,7.53
2019-02-25T14:57:17.102Z,8.57
2019-02-25T14:59:48.189Z,13.10
2019-02-25T15:02:19.498Z,6.30
2019-02-25T15:04:50.606Z,19.00
2019-02-25T15:07:21.707Z,12.13
2019-02-25T15:09:52.798Z,16.17
2019-02-25T15:12:25.497Z,15.50
2019-02-25T15:14:58.041Z,7.90
2019-02-25T15:17:29.275Z,6.53
2019-02-25T15:20:01.286Z,6.13
2019-02-25T15:22:36.305Z,13.10
2019-02-25T15:25:11.464Z,9.90
2019-02-25T15:27:43.373Z,14.20
2019-02-25T15:30:31.191Z,8.63
2019-02-25T15:33:02.309Z,9.97
2019-02-25T15:35:35.109Z,8.43
2019-02-25T15:38:06.254Z,14.47
2019-02-25T15:40:37.354Z,8.57
2019-02-25T15:43:17.742Z,12.60
2019-02-25T15:45:46.685Z,6.90
2019-02-25T15:48:22.551Z,7.90
2019-02-25T15:50:57.967Z,9.83
2019-02-25T15:53:28.533Z,5.43
2019-02-25T15:56:01.410Z,6.70
2019-02-25T15:58:32.352Z,17.13
2019-02-25T16:01:03.476Z,8.83
2019-02-25T16:03:36.660Z,17.30
2019-02-25T16:06:08.958Z,14.90
2019-02-25T16:08:41.008Z,8.87
2019-02-25T16:11:13.914Z,17.67
2019-02-25T16:13:44.968Z,17.00
2019-02-25T16:16:16.085Z,11.83
2019-02-25T16:18:47.180Z,8.63
2019-02-25T16:21:18.295Z,10.03
2019-02-25T16:23:49.385Z,26.03
2019-02-25T16:26:20.632Z,15.25
2019-02-25T16:28:53.120Z,18.90
2019-02-25T16:31:26.007Z,28.92
2019-02-25T16:33:57.704Z,10.95
2019-02-25T16:36:30.515Z,14.23
2019-02-25T16:39:05.313Z,16.40
2019-02-25T16:41:36.695Z,11.80
2019-02-25T16:44:09.131Z,14.93
2019-02-25T16:46:41.751Z,43.30
2019-02-25T16:49:13.065Z,23.05
2019-02-25T16:51:44.235Z,50.45
2019-02-25T16:54:18.867Z,20.92
2019-02-25T16:56:49.363Z,32.15
2019-02-25T16:59:22.512Z,29.48
2019-02-25T17:01:55.804Z,41.55
2019-02-25T17:04:27.736Z,85.22
2019-02-25T17:07:00.141Z,24.95
2019-02-25T17:09:34.145Z,27.73
2019-02-25T17:12:06.863Z,66.97
2019-02-25T17:14:40.514Z,25.95
2019-02-25T17:17:11.380Z,30.48
2019-02-25T17:19:42.525Z,26.17
2019-02-25T17:22:13.626Z,22.30
2019-02-25T17:24:44.761Z,32.15
2019-02-25T17:27:15.784Z,18.05
2019-02-25T17:29:46.842Z,16.10
2019-02-25T17:32:19.425Z,23.15
2019-02-25T17:34:50.725Z,17.52
2019-02-25T17:37:21.925Z,15.88
2019-02-25T17:39:54.519Z,15.40
2019-02-25T17:42:26.422Z,25.10
2019-02-25T17:44:59.884Z,13.50
2019-02-25T17:47:33.189Z,27.93
2019-02-25T17:50:06.441Z,13.53
2019-02-25T17:52:42.529Z,16.77
2019-02-25T17:55:21.746Z,25.00
2019-02-25T17:57:54.260Z,28.20
2019-02-25T18:00:33.859Z,17.32
2019-02-25T18:03:05.228Z,23.32
2019-02-25T18:05:40.054Z,27.15
2019-02-25T18:08:14.570Z,24.20
2019-02-25T18:10:45.514Z,17.07
2019-02-25T18:13:16.333Z,21.80
2019-02-25T18:15:49.398Z,20.40
2019-02-25T18:18:22.126Z,20.95
2019-02-25T18:20:54.203Z,12.73
2019-02-25T18:23:25.371Z,16.95
2019-02-25T18:25:58.694Z,25.35
2019-02-25T18:28:29.238Z,22.00
2019-02-25T18:31:01.748Z,30.02
2019-02-25T18:33:33.311Z,19.25
2019-02-25T18:36:06.622Z,21.12
2019-02-25T18:38:37.476Z,18.82
2019-02-25T18:41:09.227Z,22.17
2019-02-25T18:43:40.431Z,26.62
2019-02-25T18:46:11.463Z,19.87
2019-02-25T18:48:44.542Z,17.35
2019-02-25T18:51:15.335Z,18.27
2019-02-25T18:53:46.463Z,19.77
2019-02-25T18:56:18.491Z,33.42
2019-02-25T18:58:50.370Z,17.57
2019-02-25T19:01:21.876Z,12.03
2019-02-25T19:03:54.745Z,26.62
2019-02-25T19:06:25.843Z,18.70
2019-02-25T19:08:58.285Z,26.17
2019-02-25T19:11:29.502Z,14.45
2019-02-25T19:14:03.149Z,24.98
2019-02-25T19:16:33.378Z,25.60
2019-02-25T19:19:07.693Z,20.40
2019-02-25T19:21:37.614Z,30.90
2019-02-25T19:24:09.918Z,24.15
2019-02-25T19:26:42.560Z,22.13
2019-02-25T19:29:15.282Z,28.77
2019-02-25T19:31:48.076Z,36.20
2019-02-25T19:34:19.214Z,39.05
2019-02-25T19:36:50.359Z,30.08
2019-02-25T19:39:21.734Z,37.05
2019-02-25T19:41:53.896Z,50.20
2019-02-25T19:44:25.611Z,44.73
2019-02-25T19:46:56.711Z,40.05
2019-02-25T19:49:27.854Z,37.63
2019-02-25T19:51:58.969Z,51.05
2019-02-25T19:54:34.136Z,41.95
2019-02-25T19:57:02.866Z,44.48
2019-02-25T19:59:34.010Z,38.50
2019-02-25T20:02:05.385Z,43.90
2019-02-25T20:04:37.749Z,58.28
2019-02-25T20:07:09.209Z,38.15
2019-02-25T20:09:41.226Z,46.40
2019-02-25T20:12:12.374Z,48.10
2019-02-25T20:14:46.543Z,43.45
2019-02-25T20:17:16.992Z,53.08
2019-02-25T20:19:50.133Z,41.65
2019-02-25T20:22:21.296Z,41.45
2019-02-25T20:24:53.322Z,50.52
2019-02-25T20:27:25.116Z,50.12
2019-02-25T20:29:57.965Z,44.23
2019-02-25T20:32:32.507Z,35.28
2019-02-25T20:35:03.445Z,31.25
2019-02-25T20:37:34.584Z,46.30
2019-02-25T20:40:09.922Z,39.63
2019-02-25T20:42:41.152Z,45.28
2019-02-25T20:45:35.381Z,32.60
2019-02-25T20:48:06.586Z,39.73
2019-02-25T20:50:37.708Z,35.63
2019-02-25T20:53:10.958Z,36.83
2019-02-25T20:55:41.633Z,38.02
2019-02-25T20:58:14.000Z,35.33
2019-02-25T21:00:46.573Z,39.15
2019-02-25T21:03:20.863Z,27.02
2019-02-25T21:05:51.790Z,24.27
2019-02-25T21:08:23.898Z,28.27
2019-02-25T21:10:55.041Z,22.70
2019-02-25T21:13:28.723Z,32.55
2019-02-25T21:16:00.890Z,30.10
2019-02-25T21:18:31.656Z,22.73
2019-02-25T21:21:02.729Z,24.87
2019-02-25T21:23:33.787Z,16.65
2019-02-25T21:26:06.867Z,22.90
2019-02-25T21:28:38.125Z,16.60
2019-02-25T21:31:13.652Z,33.53
2019-02-25T21:33:47.423Z,21.62
2019-02-25T21:36:15.856Z,26.50
2019-02-25T21:38:47.906Z,14.20
2019-02-25T21:41:19.720Z,31.45
2019-02-25T21:43:51.766Z,20.50
2019-02-25T21:46:24.650Z,20.30
2019-02-25T21:48:57.571Z,18.75
2019-02-25T21:51:32.636Z,22.62
2019-02-25T21:54:02.241Z,31.00
2019-02-25T21:56:34.654Z,14.45
2019-02-25T21:59:06.246Z,29.98
2019-02-25T22:01:39.459Z,22.20
2019-02-25T22:04:13.246Z,23.83
2019-02-25T22:06:47.147Z,22.60
2019-02-25T22:09:19.147Z,25.80
2019-02-25T22:11:49.598Z,26.48
2019-02-25T22:14:21.795Z,27.77
2019-02-25T22:16:54.384Z,25.50
2019-02-25T22:19:26.229Z,18.25
2019-02-25T22:21:57.965Z,21.35
2019-02-25T22:24:31.574Z,29.10
2019-02-25T22:27:02.865Z,30.27
2019-02-25T22:29:34.851Z,69.05
2019-02-25T22:32:08.640Z,77.42
2019-02-25T22:34:39.472Z,79.20
2019-02-25T22:37:14.521Z,59.42
2019-02-25T22:39:43.937Z,35.17
2019-02-25T22:42:15.564Z,29.85
2019-02-25T22:44:48.044Z,27.05
2019-02-25T22:47:22.787Z,31.10
2019-02-25T22:49:52.212Z,30.27
2019-02-25T22:52:24.795Z,25.02
2019-02-25T22:54:56.064Z,26.97
2019-02-25T22:57:27.988Z,20.08
2019-02-25T23:00:00.053Z,30.20
2019-02-25T23:02:31.134Z,24.35
2019-02-25T23:05:02.214Z,37.53
2019-02-25T23:07:33.273Z,24.02
2019-02-25T23:10:10.235Z,32.15
2019-02-25T23:12:39.188Z,29.90
2019-02-25T23:15:11.355Z,30.05
2019-02-25T23:17:44.200Z,19.12
2019-02-25T23:20:15.164Z,27.62
2019-02-25T23:22:46.206Z,17.62
2019-02-25T23:25:17.276Z,15.95
2019-02-25T23:27:50.973Z,19.15
2019-02-25T23:30:23.459Z,16.02
2019-02-25T23:32:54.962Z,16.70
2019-02-25T23:35:26.054Z,19.90
2019-02-25T23:37:58.629Z,19.00
2019-02-25T23:40:33.328Z,13.78
2019-02-25T23:43:03.325Z,15.05
2019-02-25T23:45:36.199Z,14.45
2019-02-25T23:48:09.001Z,18.85
2019-02-25T23:50:40.964Z,12.98
2019-02-25T23:53:12.019Z,26.62
2019-02-25T23:55:45.200Z,29.90
2019-02-25T23:58:17.224Z,15.93
